Latest Weather Observations for Brisbane

IDQ60801

Issued at 9:52 pm EST Monday 19 November 2018 (issued every 10 minutes, with the page automatically refreshed every 10 minutes)

About weather observations | Map of weather stations | Latest weather observations for QLD | Other Formats
Station Details ID: 040913 Name: BRISBANE Lat: -27.48 Lon: 153.04 Height: 8.13 m
Data from the previous 72 hours. | See also: Recent months at Brisbane
Date/Time
EST
Temp
°C
App
Temp
°C
Dew
Point
°C
Rel
Hum
%
Delta-T
°C
Wind Press
QNH
hPa
Press
MSL
hPa
Rain since
9am
mm
Dir  Spd
km/h
Gust
km/h
Spd
kts
Gust
kts
19/09:30pm 21.1 21.1 12.3 57 5.0 ESE 4 4 2 2 1018.5 1018.5 0.0
19/09:00pm 20.1 20.8 12.3 61 4.4 CALM 0 0 0 0 1018.7 1018.7 0.0
19/08:30pm 20.2 20.4 11.7 58 4.7 ENE 2 4 1 2 1018.4 1018.4 0.0
19/08:00pm 20.9 20.8 12.1 57 4.9 E 4 9 2 5 1018.2 1018.2 0.0
19/07:30pm 20.9 20.8 12.1 57 4.9 E 4 7 2 4 1018.1 1018.1 0.0
19/07:00pm 21.1 20.3 11.7 55 5.2 E 7 13 4 7 1017.8 1017.8 0.0
19/06:30pm 21.7 21.0 12.0 54 5.4 E 7 17 4 9 1017.5 1017.5 0.0
19/06:00pm 22.5 21.5 12.2 52 5.8 E 9 19 5 10 1017.3 1017.3 0.0
19/05:30pm 23.1 21.8 12.4 51 6.1 E 11 22 6 12 1016.9 1016.9 0.0
19/05:00pm 24.1 22.5 12.7 49 6.5 E 13 22 7 12 1016.5 1016.5 0.0
19/04:30pm 23.7 22.0 12.4 49 6.5 E 13 24 7 13 1016.3 1016.3 0.0
19/04:00pm 25.0 23.2 12.2 44 7.3 ESE 13 24 7 13 1016.3 1016.3 0.0
19/03:30pm 25.3 23.3 11.5 42 7.8 ESE 13 24 7 13 1016.3 1016.3 0.0
19/03:00pm 24.8 23.2 11.4 43 7.6 ESE 11 22 6 12 1016.3 1016.3 0.0
19/02:30pm 25.9 24.4 12.0 42 8.0 ESE 11 20 6 11 1016.5 1016.5 0.0
19/02:00pm 24.9 23.1 10.8 41 7.9 E 11 19 6 10 1016.9 1016.9 0.0
19/01:30pm 26.4 24.8 11.7 40 8.4 E 11 24 6 13 1017.2 1017.2 0.0
19/01:00pm 25.8 23.7 11.2 40 8.2 E 13 19 7 10 1017.5 1017.5 0.0
19/12:30pm 25.8 24.3 11.9 42 7.9 ESE 11 22 6 12 1017.7 1017.7 0.0
19/12:00pm 25.4 23.4 11.6 42 7.8 E 13 20 7 11 1018.1 1018.1 0.0
19/11:30am 25.1 23.1 11.6 42 7.7 ESE 13 26 7 14 1018.6 1018.6 0.0
19/11:00am 24.7 22.5 10.9 42 7.7 SE 13 22 7 12 1018.9 1018.9 0.0
19/10:30am 25.1 23.9 12.7 46 7.2 E 11 20 6 11 1019.1 1019.1 0.0
19/10:00am 23.9 23.1 12.8 49 6.4 E 9 17 5 9 1019.7 1019.7 0.0
19/09:30am 24.6 24.1 13.8 51 6.3 ESE 9 20 5 11 1019.8 1019.8 0.0
19/09:00am 23.7 22.1 12.7 50 6.3 E 13 20 7 11 1019.9 1019.9 0.2
19/08:30am 22.6 22.1 12.8 54 5.6 SSE 7 20 4 11 1020.0 1020.0 0.2
19/08:00am 23.1 22.5 13.6 55 5.5 SE 9 17 5 9 1020.0 1020.0 0.2
19/07:30am 23.2 23.2 13.7 55 5.5 S 6 11 3 6 1020.0 1020.0 0.2
19/07:00am 22.5 22.5 13.6 57 5.1 SSE 6 11 3 6 1019.9 1019.9 0.2
19/06:30am 21.3 21.2 13.2 60 4.6 S 6 9 3 5 1019.7 1019.7 0.2
19/06:00am 20.3 20.7 13.7 66 3.8 SSW 4 9 2 5 1019.4 1019.4 0.2
19/05:30am 18.9 19.7 13.7 72 3.0 S 2 6 1 3 1019.0 1019.0 0.2
19/05:00am 18.4 18.9 13.9 75 2.6 SSE 4 6 2 3 1019.0 1019.0 0.2
19/04:30am 18.5 19.0 14.0 75 2.6 S 4 6 2 3 1018.8 1018.8 0.2
19/04:00am 18.8 19.3 14.1 74 2.7 SSE 4 7 2 4 1018.4 1018.4 0.2
19/03:30am 19.4 20.1 14.4 73 2.9 S 4 9 2 5 1018.3 1018.3 0.2
19/03:00am 19.4 19.7 14.6 74 2.8 S 6 9 3 5 1018.5 1018.5 0.2
19/02:30am 19.0 20.0 14.3 74 2.7 SSE 2 4 1 2 1018.1 1018.1 0.2
19/02:00am 19.7 20.8 14.5 72 3.0 S 2 6 1 3 1018.2 1018.2 0.2
19/01:30am 20.0 20.9 15.2 74 2.8 SSE 4 9 2 5 1018.5 1018.5 0.2
19/01:00am 19.8 21.1 15.2 75 2.7 SSE 2 7 1 4 1019.0 1019.0 0.2
19/12:30am 19.9 20.5 15.3 75 2.7 SSE 6 9 3 5 1019.3 1019.3 0.2
19/12:00am 20.0 21.2 14.8 72 3.0 S 2 6 1 3 1019.7 1019.7 0.2
 
Date/Time
EST
Temp
°C
App
Temp
°C
Dew
Point
°C
Rel
Hum
%
Delta-T
°C
Wind Press
QNH
hPa
Press
MSL
hPa
Rain since
9am
mm
Dir  Spd
km/h
Gust
km/h
Spd
kts
Gust
kts
18/11:30pm 19.8 21.4 15.0 74 2.8 CALM 0 2 0 1 1019.9 1019.9 0.2
18/11:00pm 19.8 21.4 15.0 74 2.8 CALM 0 2 0 1 1020.1 1020.1 0.2
18/10:30pm 20.0 20.9 15.2 74 2.8 ESE 4 7 2 4 1019.9 1019.9 0.2
18/10:00pm 19.9 21.4 15.7 77 2.5 ESE 2 6 1 3 1019.9 1019.9 0.2
18/09:30pm 19.8 20.5 16.1 79 2.2 ESE 7 17 4 9 1019.6 1019.6 0.2
18/09:00pm 20.6 20.7 15.6 73 3.0 ESE 9 17 5 9 1019.8 1019.8 0.2
18/08:30pm 20.4 20.2 15.8 75 2.7 ESE 11 24 6 13 1019.6 1019.6 0.2
18/08:00pm 21.5 21.1 15.1 67 3.8 ESE 11 24 6 13 1019.2 1019.2 0.2
18/07:30pm 22.0 22.0 15.1 65 4.1 SE 9 22 5 12 1019.1 1019.1 0.2
18/07:00pm 21.9 22.4 15.5 67 3.8 ESE 7 13 4 7 1018.4 1018.4 0.2
18/06:30pm 22.0 22.4 15.4 66 3.9 ESE 7 13 4 7 1018.3 1018.3 0.2
18/06:00pm 22.4 21.9 14.8 62 4.5 ESE 11 19 6 10 1018.2 1018.2 0.2
18/05:30pm 22.8 21.7 14.4 59 4.9 ESE 13 22 7 12 1017.5 1017.5 0.2
18/05:00pm 23.3 22.5 15.1 60 4.9 ESE 13 24 7 13 1017.2 1017.2 0.2
18/04:30pm 23.6 22.8 15.1 59 5.1 E 13 22 7 12 1017.3 1017.3 0.2
18/04:00pm 24.3 22.9 14.4 54 5.9 ESE 15 24 8 13 1017.2 1017.2 0.2
18/03:30pm 24.4 24.1 14.5 54 5.9 ESE 9 19 5 10 1017.4 1017.4 0.2
18/03:00pm 24.4 23.9 14.8 55 5.7 ESE 11 20 6 11 1017.4 1017.4 0.2
18/02:30pm 24.3 23.2 14.4 54 5.9 ESE 13 20 7 11 1017.5 1017.5 0.2
18/02:00pm 23.9 23.8 14.9 57 5.4 E 9 19 5 10 1017.7 1017.7 0.2
18/01:30pm 24.5 23.6 14.9 55 5.7 ESE 13 28 7 15 1017.9 1017.9 0.2
18/01:00pm 24.7 22.6 14.8 54 5.9 E 19 30 10 16 1018.1 1018.1 0.2
18/12:30pm 25.2 23.9 14.9 52 6.2 ESE 15 30 8 16 1018.3 1018.3 0.0
18/12:00pm 24.9 23.6 14.7 53 6.1 ESE 15 30 8 16 1018.4 1018.4 0.0
18/11:30am 25.2 23.6 14.9 52 6.2 E 17 30 9 16 1018.5 1018.5 0.0
18/11:00am 24.9 24.2 15.5 56 5.7 ESE 13 30 7 16 1018.4 1018.4 0.0
18/10:30am 24.1 24.4 17.1 65 4.3 ESE 11 26 6 14 1018.6 1018.6 0.0
18/10:00am 22.3 23.3 17.7 75 2.8 ESE 9 19 5 10 1018.9 1018.9 0.0
18/09:30am 22.0 21.3 16.5 71 3.3 SE 15 28 8 15 1019.1 1019.1 0.0
18/09:00am 23.4 23.2 16.7 66 4.1 ESE 13 24 7 13 1018.9 1018.9 2.8
18/08:30am 22.6 21.6 16.6 69 3.7 ESE 17 24 9 13 1018.7 1018.7 2.8
18/08:00am 22.0 21.8 16.7 72 3.2 SE 13 26 7 14 1018.6 1018.6 2.8
18/07:30am 21.9 22.4 16.6 72 3.2 SE 9 19 5 10 1018.4 1018.4 2.8
18/07:00am 21.9 22.1 16.8 73 3.1 SE 11 19 6 10 1018.1 1018.1 2.8
18/06:30am 21.3 22.4 16.7 75 2.8 SSE 6 11 3 6 1017.6 1017.6 2.8
18/06:00am 20.1 21.2 16.7 81 2.1 S 6 9 3 5 1017.4 1017.4 2.8
18/05:30am 18.8 20.8 16.9 89 1.1 SW 2 6 1 3 1017.0 1017.0 2.8
18/05:00am 18.3 19.8 16.6 90 1.0 SW 4 9 2 5 1016.6 1016.6 2.8
18/04:30am 18.1 20.3 16.4 90 1.0 CALM 0 6 0 3 1016.0 1016.0 2.8
18/04:00am 18.3 20.2 16.6 90 1.0 WSW 2 4 1 2 1015.7 1015.7 2.8
18/03:30am 18.5 20.1 16.8 90 1.0 WSW 4 6 2 3 1015.8 1015.8 2.8
18/03:00am 18.6 20.6 16.9 90 1.0 SW 2 4 1 2 1015.9 1015.9 2.8
18/02:30am 18.6 20.5 16.8 89 1.1 SSW 2 6 1 3 1015.6 1015.6 2.8
18/02:00am 18.9 20.6 17.2 90 1.0 WSW 4 7 2 4 1016.1 1016.1 2.8
18/01:30am 18.9 20.6 17.2 90 1.0 SW 4 6 2 3 1016.0 1016.0 2.8
18/01:00am 19.0 20.8 17.5 91 0.9 WSW 4 7 2 4 1016.2 1016.2 2.8
18/12:30am 19.1 21.1 17.8 92 0.8 SW 4 9 2 5 1016.1 1016.1 2.8
18/12:00am 19.2 21.1 17.7 91 0.9 SW 4 9 2 5 1016.4 1016.4 2.8
 
Date/Time
EST
Temp
°C
App
Temp
°C
Dew
Point
°C
Rel
Hum
%
Delta-T
°C
Wind Press
QNH
hPa
Press
MSL
hPa
Rain since
9am
mm
Dir  Spd
km/h
Gust
km/h
Spd
kts
Gust
kts
17/11:30pm 19.2 21.4 17.5 90 1.0 WSW 2 7 1 4 1016.8 1016.8 2.8
17/11:00pm 19.3 21.1 17.4 89 1.2 S 4 6 2 3 1016.7 1016.7 2.8
17/10:30pm 19.4 21.2 17.5 89 1.2 SSE 4 7 2 4 1017.1 1017.1 2.8
17/10:00pm 19.3 21.1 17.4 89 1.2 ESE 4 6 2 3 1017.0 1017.0 2.8
17/09:30pm 19.5 21.5 17.8 90 1.0 ESE 4 6 2 3 1017.1 1017.1 2.8
17/09:00pm 19.8 21.5 18.1 90 1.0 ESE 6 9 3 5 1017.2 1017.2 2.8
17/08:30pm 20.0 21.6 18.3 90 1.1 E 7 15 4 8 1016.7 1016.7 2.8
17/08:00pm 19.6 21.7 18.1 91 0.9 SE 4 9 2 5 1016.3 1016.3 2.8
17/07:30pm 19.4 20.8 17.9 91 0.9 SSE 7 17 4 9 1015.9 1015.9 2.6
17/07:00pm 22.8 25.1 19.4 81 2.2 SSW 6 17 3 9 1014.8 1014.8 0.6
17/06:30pm 22.9 25.1 19.3 80 2.3 W 6 17 3 9 1013.8 1013.8 0.6
17/06:00pm 23.7 25.8 19.0 75 3.0 NNW 6 13 3 7 1013.1 1013.1 0.2
17/05:30pm 23.6 25.3 18.5 73 3.2 N 7 19 4 10 1012.0 1012.0 0.2
17/05:00pm 24.3 25.1 17.3 65 4.3 E 9 17 5 9 1012.3 1012.3 0.0
17/04:30pm 24.2 25.0 18.2 69 3.8 NE 11 30 6 16 1011.0 1011.0 0.0
17/04:00pm 25.2 26.3 17.1 60 5.0 NE 7 17 4 9 1012.3 1012.3 0.0
17/03:30pm 25.5 25.5 17.2 60 5.2 ENE 13 20 7 11 1011.8 1011.8 0.0
17/03:00pm 26.6 26.9 17.1 56 5.9 ENE 11 20 6 11 1011.8 1011.8 0.0
17/02:30pm 28.0 27.8 17.5 52 6.6 ENE 15 26 8 14 1011.9 1011.9 0.0
17/02:00pm 27.5 27.8 17.1 53 6.5 ENE 11 20 6 11 1012.9 1012.9 0.0
17/01:30pm 28.6 28.8 16.8 48 7.4 ENE 11 19 6 10 1013.3 1013.3 0.0
17/01:00pm 28.5 29.2 17.1 50 7.2 NE 9 15 5 8 1013.5 1013.5 0.0
17/12:30pm 28.3 28.8 16.6 49 7.3 NE 9 17 5 9 1013.8 1013.8 0.0
17/12:00pm 28.4 29.2 16.3 47 7.5 NNE 7 15 4 8 1013.9 1013.9 0.0
17/11:30am 29.1 29.8 17.0 48 7.6 NE 9 15 5 8 1014.4 1014.4 0.0
17/11:00am 28.1 29.9 17.3 52 6.8 W 4 9 2 5 1015.1 1015.1 0.0
17/10:30am 27.7 28.6 16.6 50 6.9 WNW 7 9 4 5 1015.5 1015.5 0.0
17/10:00am 27.2 28.1 16.2 51 6.8 N 6 11 3 6 1015.7 1015.7 0.0
17/09:30am 27.4 28.7 17.0 53 6.5 NE 6 15 3 8 1016.0 1016.0 0.0
17/09:00am 25.8 27.4 16.9 58 5.5 NNE 4 7 2 4 1016.1 1016.1 0.0
17/08:30am 24.6 26.0 17.3 64 4.5 WNW 6 11 3 6 1016.3 1016.3 0.0
17/08:00am 24.6 25.9 17.6 65 4.4 W 7 11 4 6 1016.3 1016.3 0.0
17/07:30am 24.0 26.5 18.2 70 3.6 WSW 2 4 1 2 1016.2 1016.2 0.0
17/07:00am 23.0 25.9 18.1 74 3.1 CALM 0 4 0 2 1016.1 1016.1 0.0
17/06:30am 22.5 25.4 18.1 76 2.7 CALM 0 2 0 1 1015.8 1015.8 0.0
17/06:00am 21.4 24.1 17.8 80 2.2 CALM 0 0 0 0 1015.6 1015.6 0.0
17/05:30am 20.4 23.1 17.8 85 1.6 CALM 0 0 0 0 1015.2 1015.2 0.0
17/05:00am 20.1 22.6 18.1 88 1.2 SSW 2 6 1 3 1015.0 1015.0 0.0
17/04:30am 19.4 21.8 17.0 86 1.5 CALM 0 0 0 0 1014.5 1014.5 0.0
17/04:00am 19.3 21.7 16.9 86 1.5 CALM 0 0 0 0 1014.3 1014.3 0.0
17/03:30am 19.6 21.9 16.8 84 1.7 CALM 0 0 0 0 1014.1 1014.1 0.0
17/03:00am 19.8 22.2 17.0 84 1.7 CALM 0 0 0 0 1014.2 1014.2 0.0
17/02:30am 20.1 22.5 16.9 82 1.9 CALM 0 0 0 0 1014.3 1014.3 0.0
17/02:00am 20.5 22.9 16.9 80 2.2 CALM 0 0 0 0 1014.7 1014.7 0.0
17/01:30am 21.2 23.6 17.0 77 2.6 CALM 0 0 0 0 1015.1 1015.1 0.0
17/01:00am 22.1 24.2 17.2 74 3.0 ESE 2 4 1 2 1015.3 1015.3 0.0
17/12:30am 22.5 24.6 17.2 72 3.3 ESE 2 4 1 2 1015.5 1015.5 0.0
17/12:00am 23.2 24.6 17.4 70 3.6 E 6 9 3 5 1015.7 1015.7 0.0
 
Date/Time
EST
Temp
°C
App
Temp
°C
Dew
Point
°C
Rel
Hum
%
Delta-T
°C
Wind Press
QNH
hPa
Press
MSL
hPa
Rain since
9am
mm
Dir  Spd
km/h
Gust
km/h
Spd
kts
Gust
kts
16/11:30pm 23.3 25.0 17.1 68 3.8 E 4 6 2 3 1016.1 1016.1 0.0
16/11:00pm 23.4 25.5 17.2 68 3.8 NE 2 4 1 2 1016.4 1016.4 0.0
16/10:30pm 23.3 24.7 17.3 69 3.7 ENE 6 9 3 5 1016.4 1016.4 0.0
16/10:00pm 22.9 25.0 17.1 70 3.6 ENE 2 6 1 3 1016.6 1016.6 0.0

Other Formats:

Comma delimited format used in spreadsheet applications
http://www.bom.gov.au/fwo/IDQ60801/IDQ60801.94576.axf

JavaScript Object Notation format (JSON) in row-major order
http://www.bom.gov.au/fwo/IDQ60801/IDQ60801.94576.json